sensor_id;sensor_type;location;lat;lon;timestamp;pressure;altitude;pressure_sealevel;temperature
12854;BMP180;6495;51.808;7.478;2023-02-28T00:01:42;102460.00;;;1.50
12854;BMP180;6495;51.808;7.478;2023-02-28T00:04:10;102462.00;;;1.50
12854;BMP180;6495;51.808;7.478;2023-02-28T00:06:38;102456.00;;;1.50
12854;BMP180;6495;51.808;7.478;2023-02-28T00:09:06;102455.00;;;1.50
12854;BMP180;6495;51.808;7.478;2023-02-28T00:11:36;102461.00;;;1.50
12854;BMP180;6495;51.808;7.478;2023-02-28T00:14:04;102465.00;;;1.50
12854;BMP180;6495;51.808;7.478;2023-02-28T00:16:33;102461.00;;;1.50
12854;BMP180;6495;51.808;7.478;2023-02-28T00:19:01;102462.00;;;1.40
12854;BMP180;6495;51.808;7.478;2023-02-28T00:21:29;102468.00;;;1.40
12854;BMP180;6495;51.808;7.478;2023-02-28T00:23:58;102460.00;;;1.40
12854;BMP180;6495;51.808;7.478;2023-02-28T00:26:26;102467.00;;;1.30
12854;BMP180;6495;51.808;7.478;2023-02-28T00:28:56;102465.00;;;1.30
12854;BMP180;6495;51.808;7.478;2023-02-28T00:31:24;102466.00;;;1.20
12854;BMP180;6495;51.808;7.478;2023-02-28T00:33:55;102464.00;;;1.20
12854;BMP180;6495;51.808;7.478;2023-02-28T00:36:23;102463.00;;;1.20
12854;BMP180;6495;51.808;7.478;2023-02-28T00:38:52;102466.00;;;1.20
12854;BMP180;6495;51.808;7.478;2023-02-28T00:41:20;102462.00;;;1.10
12854;BMP180;6495;51.808;7.478;2023-02-28T00:43:48;102462.00;;;1.20
12854;BMP180;6495;51.808;7.478;2023-02-28T00:46:17;102461.00;;;1.10
12854;BMP180;6495;51.808;7.478;2023-02-28T00:48:45;102465.00;;;1.10
12854;BMP180;6495;51.808;7.478;2023-02-28T00:51:14;102463.00;;;1.10
12854;BMP180;6495;51.808;7.478;2023-02-28T00:53:42;102458.00;;;1.10
12854;BMP180;6495;51.808;7.478;2023-02-28T00:56:10;102456.00;;;1.10
12854;BMP180;6495;51.808;7.478;2023-02-28T00:58:38;102465.00;;;1.10
12854;BMP180;6495;51.808;7.478;2023-02-28T01:01:07;102464.00;;;1.00
12854;BMP180;6495;51.808;7.478;2023-02-28T01:03:38;102467.00;;;1.00
12854;BMP180;6495;51.808;7.478;2023-02-28T01:06:07;102464.00;;;1.00
12854;BMP180;6495;51.808;7.478;2023-02-28T01:08:35;102461.00;;;0.90
12854;BMP180;6495;51.808;7.478;2023-02-28T01:11:11;102460.00;;;0.90
12854;BMP180;6495;51.808;7.478;2023-02-28T01:13:40;102451.00;;;0.90
12854;BMP180;6495;51.808;7.478;2023-02-28T01:16:08;102459.00;;;0.80
12854;BMP180;6495;51.808;7.478;2023-02-28T01:18:40;102460.00;;;0.80
12854;BMP180;6495;51.808;7.478;2023-02-28T01:21:11;102451.00;;;0.80
12854;BMP180;6495;51.808;7.478;2023-02-28T01:23:40;102448.00;;;0.70
12854;BMP180;6495;51.808;7.478;2023-02-28T01:26:13;102445.00;;;0.70
12854;BMP180;6495;51.808;7.478;2023-02-28T01:28:42;102440.00;;;0.70
12854;BMP180;6495;51.808;7.478;2023-02-28T01:31:11;102441.00;;;0.80
12854;BMP180;6495;51.808;7.478;2023-02-28T01:33:41;102447.00;;;0.80
12854;BMP180;6495;51.808;7.478;2023-02-28T01:36:12;102439.00;;;0.80
12854;BMP180;6495;51.808;7.478;2023-02-28T01:38:42;102441.00;;;0.70
12854;BMP180;6495;51.808;7.478;2023-02-28T01:41:17;102433.00;;;0.70
12854;BMP180;6495;51.808;7.478;2023-02-28T01:44:53;102431.00;;;0.70
12854;BMP180;6495;51.808;7.478;2023-02-28T01:46:56;102433.00;;;0.60
12854;BMP180;6495;51.808;7.478;2023-02-28T01:49:25;102431.00;;;0.60
12854;BMP180;6495;51.808;7.478;2023-02-28T01:51:56;102430.00;;;0.60
12854;BMP180;6495;51.808;7.478;2023-02-28T01:54:33;102424.00;;;0.50
12854;BMP180;6495;51.808;7.478;2023-02-28T01:57:06;102430.00;;;0.50
12854;BMP180;6495;51.808;7.478;2023-02-28T01:59:39;102432.00;;;0.50
12854;BMP180;6495;51.808;7.478;2023-02-28T02:02:14;102420.00;;;0.40
12854;BMP180;6495;51.808;7.478;2023-02-28T02:04:52;102420.00;;;0.50
12854;BMP180;6495;51.808;7.478;2023-02-28T02:07:23;102416.00;;;0.40
12854;BMP180;6495;51.808;7.478;2023-02-28T02:10:03;102418.00;;;0.40
12854;BMP180;6495;51.808;7.478;2023-02-28T02:12:52;102419.00;;;0.40
12854;BMP180;6495;51.808;7.478;2023-02-28T02:15:30;102413.00;;;0.30
12854;BMP180;6495;51.808;7.478;2023-02-28T02:18:10;102414.00;;;0.40
12854;BMP180;6495;51.808;7.478;2023-02-28T02:21:14;102410.00;;;0.40
12854;BMP180;6495;51.808;7.478;2023-02-28T02:24:32;102425.00;;;0.30
12854;BMP180;6495;51.808;7.478;2023-02-28T02:27:33;102420.00;;;0.30
12854;BMP180;6495;51.808;7.478;2023-02-28T02:30:42;102428.00;;;0.30
12854;BMP180;6495;51.808;7.478;2023-02-28T02:34:09;102425.00;;;0.30
12854;BMP180;6495;51.808;7.478;2023-02-28T02:36:46;102421.00;;;0.20
12854;BMP180;6495;51.808;7.478;2023-02-28T02:39:27;102422.00;;;0.20
12854;BMP180;6495;51.808;7.478;2023-02-28T02:42:04;102423.00;;;0.10
12854;BMP180;6495;51.808;7.478;2023-02-28T02:44:43;102417.00;;;0.10
12854;BMP180;6495;51.808;7.478;2023-02-28T02:47:19;102420.00;;;0.00
12854;BMP180;6495;51.808;7.478;2023-02-28T02:49:52;102414.00;;;0.00
12854;BMP180;6495;51.808;7.478;2023-02-28T02:52:29;102421.00;;;0.00
12854;BMP180;6495;51.808;7.478;2023-02-28T02:55:02;102427.00;;;-0.10
12854;BMP180;6495;51.808;7.478;2023-02-28T02:57:36;102416.00;;;-0.10
12854;BMP180;6495;51.808;7.478;2023-02-28T03:00:08;102423.00;;;-0.10
12854;BMP180;6495;51.808;7.478;2023-02-28T03:02:39;102420.00;;;-0.20
12854;BMP180;6495;51.808;7.478;2023-02-28T03:05:20;102419.00;;;-0.20
12854;BMP180;6495;51.808;7.478;2023-02-28T03:07:50;102425.00;;;-0.20
12854;BMP180;6495;51.808;7.478;2023-02-28T03:10:35;102418.00;;;-0.20
12854;BMP180;6495;51.808;7.478;2023-02-28T03:13:41;102422.00;;;-0.20
12854;BMP180;6495;51.808;7.478;2023-02-28T03:16:34;102428.00;;;-0.30
12854;BMP180;6495;51.808;7.478;2023-02-28T03:19:32;102417.00;;;-0.30
12854;BMP180;6495;51.808;7.478;2023-02-28T03:22:19;102425.00;;;-0.40
12854;BMP180;6495;51.808;7.478;2023-02-28T03:25:00;102419.00;;;-0.40
12854;BMP180;6495;51.808;7.478;2023-02-28T03:27:35;102418.00;;;-0.40
12854;BMP180;6495;51.808;7.478;2023-02-28T03:30:10;102426.00;;;-0.40
12854;BMP180;6495;51.808;7.478;2023-02-28T03:32:48;102425.00;;;-0.40
12854;BMP180;6495;51.808;7.478;2023-02-28T03:35:22;102424.00;;;-0.50
12854;BMP180;6495;51.808;7.478;2023-02-28T03:37:59;102428.00;;;-0.40
12854;BMP180;6495;51.808;7.478;2023-02-28T03:40:33;102429.00;;;-0.50
12854;BMP180;6495;51.808;7.478;2023-02-28T03:43:10;102415.00;;;-0.50
12854;BMP180;6495;51.808;7.478;2023-02-28T03:45:43;102422.00;;;-0.50
12854;BMP180;6495;51.808;7.478;2023-02-28T03:48:17;102419.00;;;-0.50
12854;BMP180;6495;51.808;7.478;2023-02-28T03:50:52;102420.00;;;-0.50
12854;BMP180;6495;51.808;7.478;2023-02-28T03:53:27;102428.00;;;-0.60
12854;BMP180;6495;51.808;7.478;2023-02-28T03:56:03;102416.00;;;-0.60
12854;BMP180;6495;51.808;7.478;2023-02-28T03:58:42;102422.00;;;-0.60
12854;BMP180;6495;51.808;7.478;2023-02-28T04:01:16;102419.00;;;-0.60
12854;BMP180;6495;51.808;7.478;2023-02-28T04:03:47;102429.00;;;-0.60
12854;BMP180;6495;51.808;7.478;2023-02-28T04:06:18;102429.00;;;-0.70
12854;BMP180;6495;51.808;7.478;2023-02-28T04:08:49;102428.00;;;-0.70
12854;BMP180;6495;51.808;7.478;2023-02-28T04:11:23;102428.00;;;-0.70
12854;BMP180;6495;51.808;7.478;2023-02-28T04:13:51;102420.00;;;-0.70
12854;BMP180;6495;51.808;7.478;2023-02-28T04:16:20;102417.00;;;-0.70
12854;BMP180;6495;51.808;7.478;2023-02-28T04:19:02;102430.00;;;-0.80
12854;BMP180;6495;51.808;7.478;2023-02-28T04:21:33;102433.00;;;-0.80
12854;BMP180;6495;51.808;7.478;2023-02-28T04:24:05;102426.00;;;-0.80
12854;BMP180;6495;51.808;7.478;2023-02-28T04:26:36;102427.00;;;-0.80
12854;BMP180;6495;51.808;7.478;2023-02-28T04:29:06;102428.00;;;-0.80
12854;BMP180;6495;51.808;7.478;2023-02-28T04:31:34;102430.00;;;-0.90
12854;BMP180;6495;51.808;7.478;2023-02-28T04:34:03;102428.00;;;-0.90
12854;BMP180;6495;51.808;7.478;2023-02-28T04:36:32;102428.00;;;-0.90
12854;BMP180;6495;51.808;7.478;2023-02-28T04:39:00;102427.00;;;-0.90
12854;BMP180;6495;51.808;7.478;2023-02-28T04:41:30;102423.00;;;-0.90
12854;BMP180;6495;51.808;7.478;2023-02-28T04:43:59;102435.00;;;-1.00
12854;BMP180;6495;51.808;7.478;2023-02-28T04:46:27;102425.00;;;-0.90
12854;BMP180;6495;51.808;7.478;2023-02-28T04:48:55;102426.00;;;-0.90
12854;BMP180;6495;51.808;7.478;2023-02-28T04:51:24;102426.00;;;-1.00
12854;BMP180;6495;51.808;7.478;2023-02-28T04:53:52;102423.00;;;-1.00
12854;BMP180;6495;51.808;7.478;2023-02-28T04:56:21;102431.00;;;-1.00
12854;BMP180;6495;51.808;7.478;2023-02-28T04:58:51;102430.00;;;-1.00
12854;BMP180;6495;51.808;7.478;2023-02-28T05:01:23;102428.00;;;-1.00
12854;BMP180;6495;51.808;7.478;2023-02-28T05:03:55;102429.00;;;-1.10
12854;BMP180;6495;51.808;7.478;2023-02-28T05:06:26;102428.00;;;-1.10
12854;BMP180;6495;51.808;7.478;2023-02-28T05:08:55;102429.00;;;-1.10
12854;BMP180;6495;51.808;7.478;2023-02-28T05:11:26;102431.00;;;-1.10
12854;BMP180;6495;51.808;7.478;2023-02-28T05:13:58;102433.00;;;-1.10
12854;BMP180;6495;51.808;7.478;2023-02-28T05:16:26;102432.00;;;-1.10
12854;BMP180;6495;51.808;7.478;2023-02-28T05:18:54;102439.00;;;-1.10
12854;BMP180;6495;51.808;7.478;2023-02-28T05:21:30;102440.00;;;-1.10
12854;BMP180;6495;51.808;7.478;2023-02-28T05:24:03;102441.00;;;-1.10
12854;BMP180;6495;51.808;7.478;2023-02-28T05:26:35;102432.00;;;-1.10
12854;BMP180;6495;51.808;7.478;2023-02-28T05:29:05;102436.00;;;-1.10
12854;BMP180;6495;51.808;7.478;2023-02-28T05:31:34;102441.00;;;-1.10
12854;BMP180;6495;51.808;7.478;2023-02-28T05:34:02;102436.00;;;-1.10
12854;BMP180;6495;51.808;7.478;2023-02-28T05:36:31;102439.00;;;-1.10
12854;BMP180;6495;51.808;7.478;2023-02-28T05:39:00;102437.00;;;-1.10
12854;BMP180;6495;51.808;7.478;2023-02-28T05:41:29;102440.00;;;-1.10
12854;BMP180;6495;51.808;7.478;2023-02-28T05:43:58;102446.00;;;-1.20
12854;BMP180;6495;51.808;7.478;2023-02-28T05:46:27;102446.00;;;-1.20
12854;BMP180;6495;51.808;7.478;2023-02-28T05:48:55;102455.00;;;-1.20
12854;BMP180;6495;51.808;7.478;2023-02-28T05:51:27;102451.00;;;-1.20
12854;BMP180;6495;51.808;7.478;2023-02-28T05:54:00;102452.00;;;-1.10
12854;BMP180;6495;51.808;7.478;2023-02-28T05:56:28;102452.00;;;-1.10
12854;BMP180;6495;51.808;7.478;2023-02-28T05:58:57;102455.00;;;-1.20
12854;BMP180;6495;51.808;7.478;2023-02-28T06:01:34;102456.00;;;-1.10
12854;BMP180;6495;51.808;7.478;2023-02-28T06:04:04;102455.00;;;-1.10
12854;BMP180;6495;51.808;7.478;2023-02-28T06:06:33;102463.00;;;-1.20
12854;BMP180;6495;51.808;7.478;2023-02-28T06:09:03;102459.00;;;-1.20
12854;BMP180;6495;51.808;7.478;2023-02-28T06:11:32;102465.00;;;-1.20
12854;BMP180;6495;51.808;7.478;2023-02-28T06:14:01;102463.00;;;-1.20
12854;BMP180;6495;51.808;7.478;2023-02-28T06:16:34;102474.00;;;-1.20
12854;BMP180;6495;51.808;7.478;2023-02-28T06:19:04;102464.00;;;-1.30
12854;BMP180;6495;51.808;7.478;2023-02-28T06:21:32;102463.00;;;-1.30
12854;BMP180;6495;51.808;7.478;2023-02-28T06:24:00;102468.00;;;-1.30
12854;BMP180;6495;51.808;7.478;2023-02-28T06:26:29;102466.00;;;-1.30
12854;BMP180;6495;51.808;7.478;2023-02-28T06:28:57;102466.00;;;-1.30
12854;BMP180;6495;51.808;7.478;2023-02-28T06:31:25;102471.00;;;-1.30
12854;BMP180;6495;51.808;7.478;2023-02-28T06:33:57;102473.00;;;-1.30
12854;BMP180;6495;51.808;7.478;2023-02-28T06:36:25;102474.00;;;-1.30
12854;BMP180;6495;51.808;7.478;2023-02-28T06:38:53;102482.00;;;-1.30
12854;BMP180;6495;51.808;7.478;2023-02-28T06:41:23;102472.00;;;-1.20
12854;BMP180;6495;51.808;7.478;2023-02-28T06:43:53;102468.00;;;-1.20
12854;BMP180;6495;51.808;7.478;2023-02-28T06:46:21;102475.00;;;-1.20
12854;BMP180;6495;51.808;7.478;2023-02-28T06:48:50;102473.00;;;-1.20
12854;BMP180;6495;51.808;7.478;2023-02-28T06:51:20;102483.00;;;-1.20
12854;BMP180;6495;51.808;7.478;2023-02-28T06:53:49;102486.00;;;-1.20
12854;BMP180;6495;51.808;7.478;2023-02-28T06:56:18;102485.00;;;-1.10
12854;BMP180;6495;51.808;7.478;2023-02-28T06:58:47;102478.00;;;-1.10
12854;BMP180;6495;51.808;7.478;2023-02-28T07:01:16;102487.00;;;-1.10
12854;BMP180;6495;51.808;7.478;2023-02-28T07:03:46;102489.00;;;-1.00
12854;BMP180;6495;51.808;7.478;2023-02-28T07:06:21;102488.00;;;-1.00
12854;BMP180;6495;51.808;7.478;2023-02-28T07:08:51;102485.00;;;-1.00
12854;BMP180;6495;51.808;7.478;2023-02-28T07:11:20;102483.00;;;-1.00
12854;BMP180;6495;51.808;7.478;2023-02-28T07:13:49;102482.00;;;-0.90
12854;BMP180;6495;51.808;7.478;2023-02-28T07:16:18;102497.00;;;-0.90
12854;BMP180;6495;51.808;7.478;2023-02-28T07:18:46;102494.00;;;-0.90
12854;BMP180;6495;51.808;7.478;2023-02-28T07:21:15;102493.00;;;-0.90
12854;BMP180;6495;51.808;7.478;2023-02-28T07:23:44;102494.00;;;-0.90
12854;BMP180;6495;51.808;7.478;2023-02-28T07:26:15;102495.00;;;-0.90
12854;BMP180;6495;51.808;7.478;2023-02-28T07:28:46;102498.00;;;-0.80
12854;BMP180;6495;51.808;7.478;2023-02-28T07:31:16;102505.00;;;-0.80
12854;BMP180;6495;51.808;7.478;2023-02-28T07:33:45;102504.00;;;-0.70
12854;BMP180;6495;51.808;7.478;2023-02-28T07:36:16;102502.00;;;-0.70
12854;BMP180;6495;51.808;7.478;2023-02-28T07:38:48;102512.00;;;-0.60
12854;BMP180;6495;51.808;7.478;2023-02-28T07:41:19;102513.00;;;-0.50
12854;BMP180;6495;51.808;7.478;2023-02-28T07:43:48;102516.00;;;-0.40
12854;BMP180;6495;51.808;7.478;2023-02-28T07:46:17;102513.00;;;-0.40
12854;BMP180;6495;51.808;7.478;2023-02-28T07:48:47;102515.00;;;-0.30
12854;BMP180;6495;51.808;7.478;2023-02-28T07:51:15;102507.00;;;-0.20
12854;BMP180;6495;51.808;7.478;2023-02-28T07:53:43;102513.00;;;-0.20
12854;BMP180;6495;51.808;7.478;2023-02-28T07:56:12;102525.00;;;-0.10
12854;BMP180;6495;51.808;7.478;2023-02-28T07:58:40;102521.00;;;0.00
12854;BMP180;6495;51.808;7.478;2023-02-28T08:01:10;102516.00;;;0.10
12854;BMP180;6495;51.808;7.478;2023-02-28T08:03:39;102520.00;;;0.20
12854;BMP180;6495;51.808;7.478;2023-02-28T08:06:16;102527.00;;;0.30
12854;BMP180;6495;51.808;7.478;2023-02-28T08:08:45;102527.00;;;0.40
12854;BMP180;6495;51.808;7.478;2023-02-28T08:11:15;102533.00;;;0.50
12854;BMP180;6495;51.808;7.478;2023-02-28T08:13:44;102522.00;;;0.60
12854;BMP180;6495;51.808;7.478;2023-02-28T08:16:14;102524.00;;;0.70
12854;BMP180;6495;51.808;7.478;2023-02-28T08:18:45;102540.00;;;0.80
12854;BMP180;6495;51.808;7.478;2023-02-28T08:21:13;102532.00;;;1.00
12854;BMP180;6495;51.808;7.478;2023-02-28T08:23:41;102526.00;;;1.10
12854;BMP180;6495;51.808;7.478;2023-02-28T08:26:10;102527.00;;;1.30
12854;BMP180;6495;51.808;7.478;2023-02-28T08:28:39;102522.00;;;1.50
12854;BMP180;6495;51.808;7.478;2023-02-28T08:31:09;102530.00;;;1.60
12854;BMP180;6495;51.808;7.478;2023-02-28T08:33:37;102538.00;;;1.80
12854;BMP180;6495;51.808;7.478;2023-02-28T08:36:08;102530.00;;;1.90
12854;BMP180;6495;51.808;7.478;2023-02-28T08:38:37;102542.00;;;2.10
12854;BMP180;6495;51.808;7.478;2023-02-28T08:41:10;102544.00;;;2.30
12854;BMP180;6495;51.808;7.478;2023-02-28T08:43:40;102544.00;;;2.40
12854;BMP180;6495;51.808;7.478;2023-02-28T08:46:12;102540.00;;;2.50
12854;BMP180;6495;51.808;7.478;2023-02-28T08:48:41;102540.00;;;2.60
12854;BMP180;6495;51.808;7.478;2023-02-28T08:51:11;102556.00;;;2.80
12854;BMP180;6495;51.808;7.478;2023-02-28T08:53:40;102548.00;;;2.90
12854;BMP180;6495;51.808;7.478;2023-02-28T08:56:11;102547.00;;;3.00
12854;BMP180;6495;51.808;7.478;2023-02-28T08:58:42;102552.00;;;3.20
12854;BMP180;6495;51.808;7.478;2023-02-28T09:01:13;102550.00;;;3.30
12854;BMP180;6495;51.808;7.478;2023-02-28T09:03:43;102552.00;;;3.40
12854;BMP180;6495;51.808;7.478;2023-02-28T09:06:14;102542.00;;;3.30
12854;BMP180;6495;51.808;7.478;2023-02-28T09:08:43;102547.00;;;3.40
12854;BMP180;6495;51.808;7.478;2023-02-28T09:11:13;102549.00;;;3.50
12854;BMP180;6495;51.808;7.478;2023-02-28T09:13:43;102545.00;;;3.70
12854;BMP180;6495;51.808;7.478;2023-02-28T09:16:13;102543.00;;;3.80
12854;BMP180;6495;51.808;7.478;2023-02-28T09:18:43;102547.00;;;3.90
12854;BMP180;6495;51.808;7.478;2023-02-28T09:21:15;102556.00;;;4.00
12854;BMP180;6495;51.808;7.478;2023-02-28T09:23:45;102541.00;;;4.00
12854;BMP180;6495;51.808;7.478;2023-02-28T09:26:15;102550.00;;;4.10
12854;BMP180;6495;51.808;7.478;2023-02-28T09:28:45;102547.00;;;4.20
12854;BMP180;6495;51.808;7.478;2023-02-28T09:31:15;102539.00;;;4.20
12854;BMP180;6495;51.808;7.478;2023-02-28T09:33:48;102547.00;;;4.30
12854;BMP180;6495;51.808;7.478;2023-02-28T09:36:17;102550.00;;;4.40
12854;BMP180;6495;51.808;7.478;2023-02-28T09:38:46;102544.00;;;4.50
12854;BMP180;6495;51.808;7.478;2023-02-28T09:41:19;102547.00;;;4.60
12854;BMP180;6495;51.808;7.478;2023-02-28T09:43:53;102550.00;;;4.60
12854;BMP180;6495;51.808;7.478;2023-02-28T09:46:31;102546.00;;;4.50
12854;BMP180;6495;51.808;7.478;2023-02-28T09:49:04;102537.00;;;4.60
12854;BMP180;6495;51.808;7.478;2023-02-28T09:51:48;102543.00;;;4.60
12854;BMP180;6495;51.808;7.478;2023-02-28T09:54:22;102545.00;;;4.50
12854;BMP180;6495;51.808;7.478;2023-02-28T09:56:56;102541.00;;;4.60
12854;BMP180;6495;51.808;7.478;2023-02-28T09:59:48;102551.00;;;4.60
12854;BMP180;6495;51.808;7.478;2023-02-28T10:02:41;102546.00;;;4.70
12854;BMP180;6495;51.808;7.478;2023-02-28T10:05:15;102541.00;;;4.70
12854;BMP180;6495;51.808;7.478;2023-02-28T10:08:00;102551.00;;;4.80
12854;BMP180;6495;51.808;7.478;2023-02-28T10:10:36;102552.00;;;4.80
12854;BMP180;6495;51.808;7.478;2023-02-28T10:13:15;102554.00;;;4.80
12854;BMP180;6495;51.808;7.478;2023-02-28T10:15:51;102549.00;;;4.80
12854;BMP180;6495;51.808;7.478;2023-02-28T10:18:25;102543.00;;;4.80
12854;BMP180;6495;51.808;7.478;2023-02-28T10:20:56;102542.00;;;4.80
12854;BMP180;6495;51.808;7.478;2023-02-28T10:23:30;102540.00;;;4.90
12854;BMP180;6495;51.808;7.478;2023-02-28T10:26:05;102546.00;;;5.00
12854;BMP180;6495;51.808;7.478;2023-02-28T10:28:37;102534.00;;;4.90
12854;BMP180;6495;51.808;7.478;2023-02-28T10:31:11;102546.00;;;4.90
12854;BMP180;6495;51.808;7.478;2023-02-28T10:33:42;102545.00;;;4.80
12854;BMP180;6495;51.808;7.478;2023-02-28T10:36:16;102545.00;;;4.60
12854;BMP180;6495;51.808;7.478;2023-02-28T10:38:46;102535.00;;;4.60
12854;BMP180;6495;51.808;7.478;2023-02-28T10:41:17;102543.00;;;4.80
12854;BMP180;6495;51.808;7.478;2023-02-28T10:44:14;102544.00;;;4.90
12854;BMP180;6495;51.808;7.478;2023-02-28T10:46:45;102535.00;;;5.00
12854;BMP180;6495;51.808;7.478;2023-02-28T10:49:17;102548.00;;;5.20
12854;BMP180;6495;51.808;7.478;2023-02-28T10:51:53;102527.00;;;5.20
12854;BMP180;6495;51.808;7.478;2023-02-28T10:54:29;102540.00;;;5.30
12854;BMP180;6495;51.808;7.478;2023-02-28T10:57:19;102541.00;;;5.50
12854;BMP180;6495;51.808;7.478;2023-02-28T10:59:51;102531.00;;;5.40
12854;BMP180;6495;51.808;7.478;2023-02-28T11:02:33;102539.00;;;5.40
12854;BMP180;6495;51.808;7.478;2023-02-28T11:05:23;102538.00;;;5.30
12854;BMP180;6495;51.808;7.478;2023-02-28T11:07:53;102536.00;;;5.20
12854;BMP180;6495;51.808;7.478;2023-02-28T11:10:27;102534.00;;;5.30
12854;BMP180;6495;51.808;7.478;2023-02-28T11:12:57;102528.00;;;5.30
12854;BMP180;6495;51.808;7.478;2023-02-28T11:15:29;102523.00;;;5.20
12854;BMP180;6495;51.808;7.478;2023-02-28T11:18:04;102521.00;;;5.20
12854;BMP180;6495;51.808;7.478;2023-02-28T11:20:48;102533.00;;;5.20
12854;BMP180;6495;51.808;7.478;2023-02-28T11:23:19;102524.00;;;5.30
12854;BMP180;6495;51.808;7.478;2023-02-28T11:25:50;102524.00;;;5.30
12854;BMP180;6495;51.808;7.478;2023-02-28T11:28:27;102515.00;;;5.40
12854;BMP180;6495;51.808;7.478;2023-02-28T11:31:03;102521.00;;;5.40
12854;BMP180;6495;51.808;7.478;2023-02-28T11:33:42;102529.00;;;5.50
12854;BMP180;6495;51.808;7.478;2023-02-28T11:36:15;102520.00;;;5.50
12854;BMP180;6495;51.808;7.478;2023-02-28T11:38:47;102528.00;;;5.50
12854;BMP180;6495;51.808;7.478;2023-02-28T11:41:43;102521.00;;;5.50
12854;BMP180;6495;51.808;7.478;2023-02-28T11:44:35;102525.00;;;5.50
12854;BMP180;6495;51.808;7.478;2023-02-28T11:47:15;102521.00;;;5.40
12854;BMP180;6495;51.808;7.478;2023-02-28T11:50:00;102515.00;;;5.30
12854;BMP180;6495;51.808;7.478;2023-02-28T11:52:42;102520.00;;;5.30
12854;BMP180;6495;51.808;7.478;2023-02-28T11:55:20;102518.00;;;5.30
12854;BMP180;6495;51.808;7.478;2023-02-28T11:58:20;102523.00;;;5.50
12854;BMP180;6495;51.808;7.478;2023-02-28T12:01:05;102511.00;;;5.50
12854;BMP180;6495;51.808;7.478;2023-02-28T12:03:45;102498.00;;;5.50
12854;BMP180;6495;51.808;7.478;2023-02-28T12:06:28;102493.00;;;5.60
12854;BMP180;6495;51.808;7.478;2023-02-28T12:09:13;102495.00;;;5.60
12854;BMP180;6495;51.808;7.478;2023-02-28T12:11:55;102492.00;;;5.70
12854;BMP180;6495;51.808;7.478;2023-02-28T12:18:03;102482.00;;;6.10
12854;BMP180;6495;51.808;7.478;2023-02-28T12:20:42;102489.00;;;6.10
12854;BMP180;6495;51.808;7.478;2023-02-28T12:23:44;102481.00;;;6.10
12854;BMP180;6495;51.808;7.478;2023-02-28T12:26:22;102486.00;;;6.00
12854;BMP180;6495;51.808;7.478;2023-02-28T12:29:02;102480.00;;;6.00
12854;BMP180;6495;51.808;7.478;2023-02-28T12:31:36;102474.00;;;5.90
12854;BMP180;6495;51.808;7.478;2023-02-28T12:34:13;102474.00;;;6.00
12854;BMP180;6495;51.808;7.478;2023-02-28T12:36:45;102475.00;;;6.00
12854;BMP180;6495;51.808;7.478;2023-02-28T12:39:23;102485.00;;;6.10
12854;BMP180;6495;51.808;7.478;2023-02-28T12:42:00;102468.00;;;5.80
12854;BMP180;6495;51.808;7.478;2023-02-28T12:44:37;102476.00;;;5.90
12854;BMP180;6495;51.808;7.478;2023-02-28T12:47:14;102462.00;;;5.90
12854;BMP180;6495;51.808;7.478;2023-02-28T12:49:48;102463.00;;;5.80
12854;BMP180;6495;51.808;7.478;2023-02-28T12:52:24;102457.00;;;5.80
12854;BMP180;6495;51.808;7.478;2023-02-28T12:55:03;102447.00;;;5.80
12854;BMP180;6495;51.808;7.478;2023-02-28T12:57:41;102445.00;;;5.80
12854;BMP180;6495;51.808;7.478;2023-02-28T13:00:15;102444.00;;;5.90
12854;BMP180;6495;51.808;7.478;2023-02-28T13:03:12;102450.00;;;6.00
12854;BMP180;6495;51.808;7.478;2023-02-28T13:06:13;102449.00;;;5.90
12854;BMP180;6495;51.808;7.478;2023-02-28T13:09:09;102449.00;;;5.90
12854;BMP180;6495;51.808;7.478;2023-02-28T13:11:44;102435.00;;;5.90
12854;BMP180;6495;51.808;7.478;2023-02-28T13:14:23;102426.00;;;6.00
12854;BMP180;6495;51.808;7.478;2023-02-28T13:17:10;102432.00;;;6.00
12854;BMP180;6495;51.808;7.478;2023-02-28T13:19:43;102425.00;;;6.00
12854;BMP180;6495;51.808;7.478;2023-02-28T13:22:21;102414.00;;;6.00
12854;BMP180;6495;51.808;7.478;2023-02-28T13:25:52;102421.00;;;6.00
12854;BMP180;6495;51.808;7.478;2023-02-28T13:32:36;102414.00;;;5.80
12854;BMP180;6495;51.808;7.478;2023-02-28T13:35:38;102411.00;;;5.80
12854;BMP180;6495;51.808;7.478;2023-02-28T13:38:32;102416.00;;;5.80
12854;BMP180;6495;51.808;7.478;2023-02-28T13:41:42;102419.00;;;5.90
12854;BMP180;6495;51.808;7.478;2023-02-28T13:44:13;102412.00;;;5.70
12854;BMP180;6495;51.808;7.478;2023-02-28T13:47:21;102411.00;;;5.80
12854;BMP180;6495;51.808;7.478;2023-02-28T13:49:53;102405.00;;;5.80
12854;BMP180;6495;51.808;7.478;2023-02-28T13:52:24;102406.00;;;5.80
12854;BMP180;6495;51.808;7.478;2023-02-28T13:55:19;102408.00;;;5.80
12854;BMP180;6495;51.808;7.478;2023-02-28T13:58:09;102410.00;;;5.90
12854;BMP180;6495;51.808;7.478;2023-02-28T14:01:03;102405.00;;;5.90
12854;BMP180;6495;51.808;7.478;2023-02-28T14:03:58;102411.00;;;5.90
12854;BMP180;6495;51.808;7.478;2023-02-28T14:06:32;102414.00;;;5.90
12854;BMP180;6495;51.808;7.478;2023-02-28T14:09:16;102415.00;;;5.80
12854;BMP180;6495;51.808;7.478;2023-02-28T14:11:46;102408.00;;;5.80
12854;BMP180;6495;51.808;7.478;2023-02-28T14:14:54;102402.00;;;5.80
12854;BMP180;6495;51.808;7.478;2023-02-28T14:17:25;102406.00;;;5.70
12854;BMP180;6495;51.808;7.478;2023-02-28T14:19:54;102406.00;;;5.80
12854;BMP180;6495;51.808;7.478;2023-02-28T14:22:58;102396.00;;;5.80
12854;BMP180;6495;51.808;7.478;2023-02-28T14:25:36;102405.00;;;5.80
12854;BMP180;6495;51.808;7.478;2023-02-28T14:28:18;102396.00;;;5.80
12854;BMP180;6495;51.808;7.478;2023-02-28T14:31:06;102400.00;;;5.80
12854;BMP180;6495;51.808;7.478;2023-02-28T14:34:04;102401.00;;;5.70
12854;BMP180;6495;51.808;7.478;2023-02-28T14:36:42;102398.00;;;5.70
12854;BMP180;6495;51.808;7.478;2023-02-28T14:39:16;102398.00;;;5.70
12854;BMP180;6495;51.808;7.478;2023-02-28T14:41:46;102397.00;;;5.80
12854;BMP180;6495;51.808;7.478;2023-02-28T14:44:19;102393.00;;;5.80
12854;BMP180;6495;51.808;7.478;2023-02-28T14:46:51;102389.00;;;5.80
12854;BMP180;6495;51.808;7.478;2023-02-28T14:49:26;102388.00;;;5.80
12854;BMP180;6495;51.808;7.478;2023-02-28T14:52:06;102390.00;;;5.90
12854;BMP180;6495;51.808;7.478;2023-02-28T14:54:38;102387.00;;;5.90
12854;BMP180;6495;51.808;7.478;2023-02-28T14:57:22;102388.00;;;5.90
12854;BMP180;6495;51.808;7.478;2023-02-28T15:00:04;102384.00;;;5.90
12854;BMP180;6495;51.808;7.478;2023-02-28T15:02:39;102384.00;;;5.90
12854;BMP180;6495;51.808;7.478;2023-02-28T15:05:23;102385.00;;;6.00
12854;BMP180;6495;51.808;7.478;2023-02-28T15:08:04;102375.00;;;5.90
12854;BMP180;6495;51.808;7.478;2023-02-28T15:10:34;102382.00;;;5.90